createdAt,value
2019-01-30T00:00:16.204Z,3.40
2019-01-30T00:03:19.559Z,3.51
2019-01-30T00:06:23.013Z,3.65
2019-01-30T00:09:26.404Z,3.26
2019-01-30T00:12:29.760Z,3.53
2019-01-30T00:15:34.099Z,3.51
2019-01-30T00:18:49.893Z,3.49
2019-01-30T00:21:53.263Z,3.20
2019-01-30T00:24:56.639Z,3.21
2019-01-30T00:28:00.003Z,3.13
2019-01-30T00:31:03.378Z,3.22
2019-01-30T00:34:06.742Z,3.21
2019-01-30T00:37:10.139Z,3.18
2019-01-30T00:40:15.836Z,2.75
2019-01-30T00:43:19.486Z,3.10
2019-01-30T00:46:22.855Z,3.04
2019-01-30T00:49:26.226Z,3.08
2019-01-30T00:52:29.598Z,2.93
2019-01-30T00:55:32.995Z,2.98
2019-01-30T00:58:36.353Z,3.02
2019-01-30T01:01:39.725Z,2.94
2019-01-30T01:04:43.093Z,2.98
2019-01-30T01:07:46.903Z,3.09
2019-01-30T01:10:50.264Z,3.06
2019-01-30T01:13:53.643Z,3.03
2019-01-30T01:16:57.013Z,3.09
2019-01-30T01:20:00.690Z,3.23
2019-01-30T01:23:05.480Z,3.18
2019-01-30T01:26:08.832Z,3.28
2019-01-30T01:29:12.278Z,3.03
2019-01-30T01:32:15.659Z,2.88
2019-01-30T01:35:19.185Z,2.73
2019-01-30T01:38:22.558Z,2.75
2019-01-30T01:41:25.932Z,2.68
2019-01-30T01:44:29.312Z,2.61
2019-01-30T01:47:32.696Z,2.77
2019-01-30T01:50:55.412Z,2.64
2019-01-30T01:53:58.790Z,2.70
2019-01-30T01:57:02.157Z,2.72
2019-01-30T02:00:34.952Z,2.75
2019-01-30T02:03:30.125Z,2.70
2019-01-30T02:06:33.505Z,2.62
2019-01-30T02:09:36.884Z,2.72
2019-01-30T02:12:40.328Z,2.56
2019-01-30T02:15:43.701Z,2.56
2019-01-30T02:18:47.079Z,2.64
2019-01-30T02:21:50.443Z,2.63
2019-01-30T02:24:53.839Z,2.70
2019-01-30T02:27:57.386Z,2.56
2019-01-30T02:31:00.769Z,2.75
2019-01-30T02:37:33.398Z,2.67
2019-01-30T02:40:36.795Z,2.49
2019-01-30T02:43:40.165Z,2.45
2019-01-30T02:46:43.555Z,2.69
2019-01-30T02:49:46.919Z,2.64
2019-01-30T02:52:50.296Z,2.71
2019-01-30T02:55:53.692Z,3.01
2019-01-30T02:58:57.306Z,2.84
2019-01-30T03:05:50.969Z,3.15
2019-01-30T03:08:54.320Z,2.64
2019-01-30T03:11:57.705Z,2.61
2019-01-30T03:15:01.078Z,2.91
2019-01-30T03:18:04.525Z,2.66
2019-01-30T03:21:07.899Z,2.50
2019-01-30T03:24:11.266Z,2.57
2019-01-30T03:27:14.638Z,2.57
2019-01-30T03:30:57.919Z,2.55
2019-01-30T03:34:01.300Z,2.67
2019-01-30T03:37:04.738Z,2.54
2019-01-30T03:40:48.218Z,2.31
2019-01-30T03:43:51.590Z,2.48
2019-01-30T03:46:55.054Z,2.80
2019-01-30T03:49:58.445Z,2.89
2019-01-30T03:53:01.814Z,2.97
2019-01-30T03:56:05.257Z,2.67
2019-01-30T03:59:08.630Z,2.75
2019-01-30T04:02:11.989Z,2.71
2019-01-30T04:05:15.436Z,2.76
2019-01-30T04:08:18.821Z,2.75
2019-01-30T04:11:22.175Z,2.96
2019-01-30T04:14:44.899Z,2.58
2019-01-30T04:17:48.337Z,2.62
2019-01-30T04:20:51.711Z,2.31
2019-01-30T04:23:55.100Z,2.64
2019-01-30T04:26:58.467Z,2.40
2019-01-30T04:30:01.839Z,2.50
2019-01-30T04:33:05.277Z,2.34
2019-01-30T04:36:08.750Z,2.57
2019-01-30T04:39:12.183Z,2.61
2019-01-30T04:42:15.543Z,2.66
2019-01-30T04:45:58.856Z,2.43
2019-01-30T04:49:21.569Z,2.36
2019-01-30T04:52:24.948Z,2.39
2019-01-30T04:55:28.319Z,2.36
2019-01-30T04:58:31.694Z,2.55
2019-01-30T05:01:35.070Z,2.33
2019-01-30T05:04:38.510Z,2.43
2019-01-30T05:07:41.956Z,2.41
2019-01-30T05:10:45.334Z,2.57
2019-01-30T05:13:48.709Z,2.61
2019-01-30T05:16:52.094Z,2.46
2019-01-30T05:19:55.453Z,2.37
2019-01-30T05:22:58.838Z,2.66
2019-01-30T05:26:02.289Z,2.84
2019-01-30T05:29:05.724Z,2.81
2019-01-30T05:32:09.108Z,2.83
2019-01-30T05:38:41.777Z,2.64
2019-01-30T05:41:45.147Z,2.76
2019-01-30T05:44:48.510Z,2.73
2019-01-30T05:47:51.896Z,2.66
2019-01-30T05:50:55.271Z,2.70
2019-01-30T05:53:58.676Z,2.88
2019-01-30T05:57:02.057Z,2.68
2019-01-30T06:00:45.330Z,2.55
2019-01-30T06:03:48.708Z,2.55
2019-01-30T06:06:52.100Z,2.90
2019-01-30T06:09:55.468Z,2.67
2019-01-30T06:13:18.182Z,2.57
2019-01-30T06:16:21.597Z,2.67
2019-01-30T06:19:24.932Z,2.38
2019-01-30T06:22:47.720Z,2.17
2019-01-30T06:26:10.446Z,2.42
2019-01-30T06:29:13.832Z,2.46
2019-01-30T06:32:21.901Z,2.66
2019-01-30T06:35:41.648Z,2.50
2019-01-30T06:38:45.033Z,2.29
2019-01-30T06:41:49.309Z,2.28
2019-01-30T06:44:52.689Z,2.36
2019-01-30T06:48:15.440Z,2.29
2019-01-30T06:51:18.815Z,2.15
2019-01-30T06:54:34.727Z,2.04
2019-01-30T06:57:38.171Z,1.78
2019-01-30T07:00:41.547Z,1.92
2019-01-30T07:03:44.976Z,1.72
2019-01-30T07:06:48.360Z,1.90
2019-01-30T07:09:51.732Z,2.04
2019-01-30T07:12:55.170Z,1.96
2019-01-30T07:15:58.546Z,1.57
2019-01-30T07:19:01.922Z,1.75
2019-01-30T07:22:05.281Z,1.96
2019-01-30T07:25:29.447Z,1.79
2019-01-30T07:28:32.814Z,1.72
2019-01-30T07:31:36.196Z,1.59
2019-01-30T07:34:39.590Z,1.74
2019-01-30T07:37:42.954Z,1.85
2019-01-30T07:40:46.341Z,1.73
2019-01-30T07:43:49.705Z,1.65
2019-01-30T07:46:53.086Z,1.62
2019-01-30T07:49:56.467Z,1.60
2019-01-30T07:52:59.901Z,1.58
2019-01-30T07:56:03.481Z,1.74
2019-01-30T07:59:06.942Z,1.66
2019-01-30T08:02:13.814Z,1.63
2019-01-30T08:05:17.268Z,1.74
2019-01-30T08:08:20.634Z,1.96
2019-01-30T08:11:24.019Z,1.79
2019-01-30T08:14:27.404Z,1.69
2019-01-30T08:17:30.817Z,1.86
2019-01-30T08:20:34.188Z,2.00
2019-01-30T08:23:38.540Z,1.60
2019-01-30T08:26:41.961Z,1.72
2019-01-30T08:29:45.661Z,1.83
2019-01-30T08:32:49.511Z,2.18
2019-01-30T08:35:52.881Z,2.11
2019-01-30T08:38:56.251Z,2.24
2019-01-30T08:41:59.635Z,2.51
2019-01-30T08:45:03.271Z,2.31
2019-01-30T08:48:06.648Z,2.29
2019-01-30T08:51:10.086Z,2.16
2019-01-30T08:54:13.457Z,2.55
2019-01-30T08:57:17.089Z,2.79
2019-01-30T09:00:25.700Z,2.76
2019-01-30T09:03:29.193Z,2.75
2019-01-30T09:06:32.540Z,2.81
2019-01-30T09:09:35.911Z,2.64
2019-01-30T09:12:39.348Z,2.64
2019-01-30T09:15:42.731Z,2.88
2019-01-30T09:18:46.107Z,3.00
2019-01-30T09:21:49.475Z,3.33
2019-01-30T09:24:52.858Z,3.18
2019-01-30T09:27:56.264Z,3.18
2019-01-30T09:30:59.615Z,3.00
2019-01-30T09:34:02.998Z,3.08
2019-01-30T09:37:06.395Z,3.24
2019-01-30T09:40:12.920Z,3.19
2019-01-30T09:43:23.233Z,3.34
2019-01-30T09:46:26.610Z,2.99
2019-01-30T09:49:29.983Z,3.10
2019-01-30T09:52:33.353Z,3.21
2019-01-30T09:55:36.739Z,3.38
2019-01-30T09:58:40.115Z,3.35
2019-01-30T10:01:43.555Z,3.42
2019-01-30T10:04:46.872Z,3.32
2019-01-30T10:07:50.238Z,3.38
2019-01-30T10:10:53.620Z,3.57
2019-01-30T10:13:57.002Z,3.21
2019-01-30T10:17:00.357Z,3.56
2019-01-30T10:20:04.905Z,3.36
2019-01-30T10:23:08.356Z,3.47
2019-01-30T10:26:11.738Z,3.71
2019-01-30T10:29:15.124Z,3.92
2019-01-30T10:32:18.503Z,3.59
2019-01-30T10:35:21.950Z,3.56
2019-01-30T10:38:25.363Z,3.75
2019-01-30T10:41:28.725Z,3.91
2019-01-30T10:44:32.212Z,3.96
2019-01-30T10:47:35.627Z,3.89
2019-01-30T10:50:39.044Z,3.57
2019-01-30T10:53:42.434Z,3.43
2019-01-30T10:56:45.818Z,3.51
2019-01-30T10:59:49.187Z,3.59
2019-01-30T11:02:52.620Z,2.59
2019-01-30T11:05:56.296Z,3.40
2019-01-30T11:08:59.659Z,3.55
2019-01-30T11:12:05.073Z,3.44
2019-01-30T11:15:12.095Z,3.39
2019-01-30T11:18:15.531Z,3.60
2019-01-30T11:21:18.908Z,3.67
2019-01-30T11:24:22.266Z,3.76
2019-01-30T11:27:26.609Z,3.91
2019-01-30T11:30:30.006Z,4.01
2019-01-30T11:33:33.369Z,3.82
2019-01-30T11:36:36.748Z,3.94
2019-01-30T11:39:40.198Z,4.00
2019-01-30T11:42:43.740Z,4.03
2019-01-30T11:45:47.359Z,3.85
2019-01-30T11:48:56.380Z,3.94
2019-01-30T11:51:55.874Z,3.92
2019-01-30T11:54:59.557Z,3.91
2019-01-30T11:58:03.021Z,3.75
2019-01-30T12:01:06.377Z,3.73
2019-01-30T12:04:17.729Z,3.63
2019-01-30T12:07:15.887Z,3.68
2019-01-30T12:10:19.265Z,3.54
2019-01-30T12:13:22.754Z,3.56
2019-01-30T12:16:26.107Z,3.69
2019-01-30T12:19:29.487Z,3.75
2019-01-30T12:22:32.874Z,3.68
2019-01-30T12:25:36.301Z,3.87
2019-01-30T12:28:40.648Z,3.63
2019-01-30T12:31:44.031Z,3.41
2019-01-30T12:34:47.402Z,3.75
2019-01-30T12:37:50.857Z,3.99
2019-01-30T12:40:54.221Z,3.79
2019-01-30T12:43:57.596Z,3.71
2019-01-30T12:47:01.976Z,3.69
2019-01-30T12:50:08.220Z,3.82
2019-01-30T12:53:11.707Z,3.76
2019-01-30T12:56:15.090Z,3.81
2019-01-30T12:59:18.488Z,3.69
2019-01-30T13:02:28.001Z,3.65
2019-01-30T13:05:31.613Z,3.44
2019-01-30T13:08:41.948Z,3.63
2019-01-30T13:11:45.365Z,3.63
2019-01-30T13:14:48.739Z,3.67
2019-01-30T13:17:59.553Z,3.66
2019-01-30T13:21:02.917Z,3.66
2019-01-30T13:24:06.650Z,3.43
2019-01-30T13:27:10.257Z,3.49
2019-01-30T13:30:19.925Z,3.80
2019-01-30T13:33:23.324Z,3.74
2019-01-30T13:36:26.696Z,3.56
2019-01-30T13:39:35.100Z,3.79
2019-01-30T13:42:38.474Z,3.59
2019-01-30T13:45:41.863Z,3.67
2019-01-30T13:48:45.263Z,3.50
2019-01-30T13:51:48.641Z,3.54
2019-01-30T13:54:52.087Z,3.56
2019-01-30T13:57:55.546Z,3.56
2019-01-30T14:00:58.937Z,3.11
2019-01-30T14:04:02.414Z,3.26
2019-01-30T14:07:05.802Z,3.32
2019-01-30T14:10:28.831Z,3.40
2019-01-30T14:13:32.203Z,3.18
2019-01-30T14:16:35.614Z,2.79
2019-01-30T14:19:38.972Z,2.85
2019-01-30T14:22:42.350Z,3.05
2019-01-30T14:26:05.061Z,3.04
2019-01-30T14:29:08.431Z,3.26
2019-01-30T14:32:11.811Z,3.35
2019-01-30T14:35:15.197Z,3.18
2019-01-30T14:38:18.565Z,3.37
2019-01-30T14:41:22.078Z,3.34
2019-01-30T14:44:25.710Z,3.26
2019-01-30T14:47:29.078Z,3.45
2019-01-30T14:50:32.528Z,3.24
2019-01-30T14:53:35.932Z,3.19
2019-01-30T14:56:58.644Z,3.45
2019-01-30T15:00:02.107Z,3.25
2019-01-30T15:03:47.448Z,3.11
2019-01-30T15:06:50.692Z,3.03
2019-01-30T15:09:54.070Z,3.35
2019-01-30T15:12:57.606Z,3.44
2019-01-30T15:16:00.985Z,3.51
2019-01-30T15:22:33.740Z,3.23
2019-01-30T15:25:37.105Z,3.37
2019-01-30T15:28:40.486Z,3.46
2019-01-30T15:31:43.854Z,3.18
2019-01-30T15:34:47.321Z,3.11
2019-01-30T15:37:50.715Z,3.22
2019-01-30T15:41:13.422Z,3.21
2019-01-30T15:44:16.807Z,3.12
2019-01-30T15:47:20.176Z,3.16
2019-01-30T15:51:03.467Z,2.90
2019-01-30T15:54:26.185Z,3.03
2019-01-30T15:57:29.562Z,2.75
2019-01-30T16:01:12.847Z,3.11
2019-01-30T16:04:17.550Z,3.06
2019-01-30T16:07:21.384Z,3.18
2019-01-30T16:10:24.905Z,3.09
2019-01-30T16:13:28.322Z,2.92
2019-01-30T16:16:31.683Z,3.08
2019-01-30T16:19:35.060Z,2.97
2019-01-30T16:22:38.432Z,3.01
2019-01-30T16:25:41.810Z,2.66
2019-01-30T16:28:45.230Z,2.66
2019-01-30T16:31:48.596Z,2.88
2019-01-30T16:34:51.985Z,2.88
2019-01-30T16:37:55.427Z,2.85
2019-01-30T16:40:58.806Z,2.96
2019-01-30T16:44:02.181Z,3.07
2019-01-30T16:47:05.634Z,3.11
2019-01-30T16:50:48.924Z,3.17
2019-01-30T16:53:52.301Z,3.14
2019-01-30T16:56:55.678Z,3.30
2019-01-30T16:59:59.066Z,3.08
2019-01-30T17:03:42.345Z,3.22
2019-01-30T17:06:45.744Z,3.08
2019-01-30T17:10:09.610Z,2.97
2019-01-30T17:13:12.995Z,3.07
2019-01-30T17:16:16.366Z,3.15
2019-01-30T17:19:19.732Z,3.17
2019-01-30T17:22:23.191Z,3.24
2019-01-30T17:25:26.799Z,3.35
2019-01-30T17:28:30.187Z,3.24
2019-01-30T17:31:33.567Z,3.08
2019-01-30T17:34:36.935Z,3.00
2019-01-30T17:37:40.592Z,3.13
2019-01-30T17:41:23.888Z,2.91
2019-01-30T17:44:27.264Z,2.88
2019-01-30T17:47:30.629Z,2.89
2019-01-30T17:50:34.009Z,3.07
2019-01-30T17:53:37.387Z,2.91
2019-01-30T17:56:40.771Z,3.07
2019-01-30T17:59:44.141Z,2.90
2019-01-30T18:02:47.527Z,2.83
2019-01-30T18:05:50.976Z,2.74
2019-01-30T18:08:54.354Z,5.17
2019-01-30T18:11:57.751Z,3.74
2019-01-30T18:15:01.131Z,3.38
2019-01-30T18:18:44.661Z,3.02
2019-01-30T18:21:48.043Z,3.27
2019-01-30T18:24:51.427Z,2.90
2019-01-30T18:27:55.088Z,2.50
2019-01-30T18:30:58.538Z,2.85
2019-01-30T18:34:01.937Z,3.03
2019-01-30T18:37:05.455Z,2.81
2019-01-30T18:40:48.788Z,2.85
2019-01-30T18:43:52.172Z,2.53
2019-01-30T18:46:55.561Z,2.84
2019-01-30T18:49:58.938Z,2.63
2019-01-30T18:53:02.314Z,2.55
2019-01-30T18:56:05.760Z,2.48
2019-01-30T18:59:09.162Z,2.39
2019-01-30T19:02:12.533Z,2.48
2019-01-30T19:05:55.824Z,2.43
2019-01-30T19:08:59.213Z,2.75
2019-01-30T19:12:02.603Z,2.66
2019-01-30T19:15:26.761Z,2.63
2019-01-30T19:18:37.823Z,2.42
2019-01-30T19:21:41.211Z,2.31
2019-01-30T19:24:44.587Z,2.55
2019-01-30T19:27:48.317Z,2.57
2019-01-30T19:30:51.694Z,2.19
2019-01-30T19:33:55.087Z,2.13
2019-01-30T19:37:17.886Z,2.04
2019-01-30T19:40:21.327Z,2.23
2019-01-30T19:43:25.010Z,2.24
2019-01-30T19:46:28.355Z,2.23
2019-01-30T19:49:31.739Z,2.03
2019-01-30T19:52:35.112Z,2.25
2019-01-30T19:55:38.477Z,2.34
2019-01-30T19:58:41.850Z,2.31
2019-01-30T20:01:45.213Z,2.30
2019-01-30T20:04:48.595Z,2.36
2019-01-30T20:07:52.036Z,2.42
2019-01-30T20:10:55.409Z,2.79
2019-01-30T20:13:59.200Z,2.61
2019-01-30T20:17:10.353Z,2.55
2019-01-30T20:20:16.329Z,2.61
2019-01-30T20:23:31.241Z,2.68
2019-01-30T20:26:34.611Z,2.86
2019-01-30T20:29:37.979Z,2.82
2019-01-30T20:32:53.362Z,2.57
2019-01-30T20:35:56.715Z,2.70
2019-01-30T20:39:00.086Z,2.67
2019-01-30T20:42:03.462Z,2.82
2019-01-30T20:45:10.271Z,2.66
2019-01-30T20:48:19.701Z,2.61
2019-01-30T20:51:23.078Z,2.68
2019-01-30T20:54:26.461Z,2.63
2019-01-30T20:57:29.828Z,2.44
2019-01-30T21:00:35.732Z,2.55
2019-01-30T21:03:39.112Z,2.44
2019-01-30T21:06:42.479Z,2.61
2019-01-30T21:09:45.863Z,2.36
2019-01-30T21:12:49.556Z,2.28
2019-01-30T21:15:52.919Z,2.22
2019-01-30T21:18:56.527Z,2.22
2019-01-30T21:21:59.891Z,2.36
2019-01-30T21:25:03.927Z,2.25
2019-01-30T21:28:07.375Z,2.28
2019-01-30T21:31:10.777Z,2.35
2019-01-30T21:34:14.123Z,2.57
2019-01-30T21:37:20.473Z,2.52
2019-01-30T21:40:22.672Z,2.61
2019-01-30T21:43:26.189Z,2.39
2019-01-30T21:46:29.485Z,2.29
2019-01-30T21:49:32.931Z,2.34
2019-01-30T21:52:36.309Z,2.26
2019-01-30T21:55:39.692Z,2.43
2019-01-30T21:58:43.068Z,2.50
2019-01-30T22:01:46.444Z,2.36
2019-01-30T22:04:49.830Z,2.42
2019-01-30T22:08:00.575Z,2.06
2019-01-30T22:10:58.326Z,2.13
2019-01-30T22:14:01.707Z,2.14
2019-01-30T22:17:05.146Z,2.24
2019-01-30T22:20:20.291Z,2.28
2019-01-30T22:23:23.672Z,2.30
2019-01-30T22:26:27.035Z,2.10
2019-01-30T22:29:33.575Z,1.98
2019-01-30T22:32:36.937Z,2.00
2019-01-30T22:35:40.327Z,2.01
2019-01-30T22:38:43.700Z,2.19
2019-01-30T22:41:47.068Z,2.19
2019-01-30T22:44:50.443Z,2.42
2019-01-30T22:47:53.814Z,2.19
2019-01-30T22:50:57.189Z,2.30
2019-01-30T22:54:00.572Z,2.15
2019-01-30T22:57:03.942Z,2.47
2019-01-30T23:00:57.704Z,2.24
2019-01-30T23:04:04.154Z,2.19
2019-01-30T23:07:16.228Z,1.87
2019-01-30T23:10:25.324Z,1.96
2019-01-30T23:13:34.514Z,1.76
2019-01-30T23:16:52.701Z,1.87
2019-01-30T23:19:59.180Z,1.74
2019-01-30T23:23:11.563Z,1.73
2019-01-30T23:26:20.995Z,1.77
2019-01-30T23:29:27.425Z,2.00
2019-01-30T23:32:51.907Z,1.91
2019-01-30T23:36:10.257Z,1.79
2019-01-30T23:39:37.830Z,1.53
2019-01-30T23:42:52.958Z,1.27
2019-01-30T23:46:17.059Z,1.49
2019-01-30T23:49:41.541Z,1.48
2019-01-30T23:53:04.498Z,1.32
2019-01-30T23:56:13.870Z,1.48
2019-01-30T23:59:26.217Z,1.22
